sensor_id;sensor_type;location;lat;lon;timestamp;P1;durP1;ratioP1;P2;durP2;ratioP2
8737;SDS011;4405;49.272;8.590;2023-03-01T00:00:00;10.87;;;8.03;;
8737;SDS011;4405;49.272;8.590;2023-03-01T00:02:26;8.90;;;7.63;;
8737;SDS011;4405;49.272;8.590;2023-03-01T00:04:54;10.73;;;8.10;;
8737;SDS011;4405;49.272;8.590;2023-03-01T00:07:20;9.30;;;7.47;;
8737;SDS011;4405;49.272;8.590;2023-03-01T00:09:47;9.17;;;8.03;;
8737;SDS011;4405;49.272;8.590;2023-03-01T00:12:14;11.13;;;7.87;;
8737;SDS011;4405;49.272;8.590;2023-03-01T00:14:40;8.77;;;7.33;;
8737;SDS011;4405;49.272;8.590;2023-03-01T00:17:07;10.93;;;8.27;;
8737;SDS011;4405;49.272;8.590;2023-03-01T00:19:33;8.97;;;6.97;;
8737;SDS011;4405;49.272;8.590;2023-03-01T00:22:01;10.33;;;8.57;;
8737;SDS011;4405;49.272;8.590;2023-03-01T00:24:27;9.33;;;7.63;;
8737;SDS011;4405;49.272;8.590;2023-03-01T00:26:54;8.50;;;7.60;;
8737;SDS011;4405;49.272;8.590;2023-03-01T00:29:21;11.13;;;8.33;;
8737;SDS011;4405;49.272;8.590;2023-03-01T00:31:47;10.63;;;7.70;;
8737;SDS011;4405;49.272;8.590;2023-03-01T00:34:14;10.47;;;7.87;;
8737;SDS011;4405;49.272;8.590;2023-03-01T00:36:40;11.80;;;7.93;;
8737;SDS011;4405;49.272;8.590;2023-03-01T00:39:09;9.00;;;7.67;;
8737;SDS011;4405;49.272;8.590;2023-03-01T00:41:36;10.70;;;7.80;;
8737;SDS011;4405;49.272;8.590;2023-03-01T00:44:03;10.27;;;8.23;;
8737;SDS011;4405;49.272;8.590;2023-03-01T00:46:29;9.50;;;7.97;;
8737;SDS011;4405;49.272;8.590;2023-03-01T00:48:56;11.63;;;8.63;;
8737;SDS011;4405;49.272;8.590;2023-03-01T00:51:23;12.03;;;8.67;;
8737;SDS011;4405;49.272;8.590;2023-03-01T00:53:49;11.33;;;8.23;;
8737;SDS011;4405;49.272;8.590;2023-03-01T00:56:17;11.67;;;8.33;;
8737;SDS011;4405;49.272;8.590;2023-03-01T00:58:44;10.23;;;8.83;;
8737;SDS011;4405;49.272;8.590;2023-03-01T01:01:10;11.47;;;8.23;;
8737;SDS011;4405;49.272;8.590;2023-03-01T01:03:42;11.00;;;8.40;;
8737;SDS011;4405;49.272;8.590;2023-03-01T01:06:12;10.77;;;7.83;;
8737;SDS011;4405;49.272;8.590;2023-03-01T01:08:39;10.93;;;8.37;;
8737;SDS011;4405;49.272;8.590;2023-03-01T01:11:05;11.03;;;8.83;;
8737;SDS011;4405;49.272;8.590;2023-03-01T01:13:33;11.10;;;8.77;;
8737;SDS011;4405;49.272;8.590;2023-03-01T01:16:00;9.57;;;8.57;;
8737;SDS011;4405;49.272;8.590;2023-03-01T01:18:26;12.40;;;9.37;;
8737;SDS011;4405;49.272;8.590;2023-03-01T01:20:53;12.73;;;9.40;;
8737;SDS011;4405;49.272;8.590;2023-03-01T01:23:19;12.43;;;8.63;;
8737;SDS011;4405;49.272;8.590;2023-03-01T01:25:45;12.57;;;8.43;;
8737;SDS011;4405;49.272;8.590;2023-03-01T01:28:12;13.87;;;8.90;;
8737;SDS011;4405;49.272;8.590;2023-03-01T01:30:39;11.10;;;8.93;;
8737;SDS011;4405;49.272;8.590;2023-03-01T01:33:06;11.10;;;8.50;;
8737;SDS011;4405;49.272;8.590;2023-03-01T01:35:32;10.10;;;9.00;;
8737;SDS011;4405;49.272;8.590;2023-03-01T01:37:59;10.87;;;9.03;;
8737;SDS011;4405;49.272;8.590;2023-03-01T01:40:25;11.27;;;9.17;;
8737;SDS011;4405;49.272;8.590;2023-03-01T01:42:51;11.23;;;8.93;;
8737;SDS011;4405;49.272;8.590;2023-03-01T01:45:24;10.40;;;8.37;;
8737;SDS011;4405;49.272;8.590;2023-03-01T01:47:53;13.23;;;9.27;;
8737;SDS011;4405;49.272;8.590;2023-03-01T01:50:21;13.13;;;9.20;;
8737;SDS011;4405;49.272;8.590;2023-03-01T01:52:47;12.40;;;9.27;;
8737;SDS011;4405;49.272;8.590;2023-03-01T01:55:15;13.43;;;9.50;;
8737;SDS011;4405;49.272;8.590;2023-03-01T01:57:43;11.47;;;9.27;;
8737;SDS011;4405;49.272;8.590;2023-03-01T02:00:12;10.70;;;8.97;;
8737;SDS011;4405;49.272;8.590;2023-03-01T02:02:39;12.33;;;9.83;;
8737;SDS011;4405;49.272;8.590;2023-03-01T02:05:11;15.27;;;9.40;;
8737;SDS011;4405;49.272;8.590;2023-03-01T02:07:40;15.20;;;9.20;;
8737;SDS011;4405;49.272;8.590;2023-03-01T02:10:07;14.87;;;9.40;;
8737;SDS011;4405;49.272;8.590;2023-03-01T02:12:34;13.43;;;9.20;;
8737;SDS011;4405;49.272;8.590;2023-03-01T02:15:02;12.57;;;9.73;;
8737;SDS011;4405;49.272;8.590;2023-03-01T02:17:28;11.00;;;8.80;;
8737;SDS011;4405;49.272;8.590;2023-03-01T02:19:59;12.23;;;9.10;;
8737;SDS011;4405;49.272;8.590;2023-03-01T02:22:33;12.53;;;9.60;;
8737;SDS011;4405;49.272;8.590;2023-03-01T02:25:03;13.57;;;9.23;;
8737;SDS011;4405;49.272;8.590;2023-03-01T02:27:35;11.80;;;9.63;;
8737;SDS011;4405;49.272;8.590;2023-03-01T02:30:04;13.00;;;9.87;;
8737;SDS011;4405;49.272;8.590;2023-03-01T02:32:31;10.17;;;8.10;;
8737;SDS011;4405;49.272;8.590;2023-03-01T02:34:57;11.93;;;9.30;;
8737;SDS011;4405;49.272;8.590;2023-03-01T02:37:23;10.03;;;8.27;;
8737;SDS011;4405;49.272;8.590;2023-03-01T02:39:52;10.10;;;8.20;;
8737;SDS011;4405;49.272;8.590;2023-03-01T02:42:22;13.07;;;8.87;;
8737;SDS011;4405;49.272;8.590;2023-03-01T02:44:49;12.93;;;9.17;;
8737;SDS011;4405;49.272;8.590;2023-03-01T02:47:17;12.10;;;9.53;;
8737;SDS011;4405;49.272;8.590;2023-03-01T02:49:43;11.30;;;8.97;;
8737;SDS011;4405;49.272;8.590;2023-03-01T02:52:20;12.93;;;9.27;;
8737;SDS011;4405;49.272;8.590;2023-03-01T02:54:48;12.50;;;9.20;;
8737;SDS011;4405;49.272;8.590;2023-03-01T02:57:15;12.23;;;9.37;;
8737;SDS011;4405;49.272;8.590;2023-03-01T02:59:41;11.37;;;8.77;;
8737;SDS011;4405;49.272;8.590;2023-03-01T03:02:19;15.83;;;10.00;;
8737;SDS011;4405;49.272;8.590;2023-03-01T03:05:01;13.27;;;9.00;;
8737;SDS011;4405;49.272;8.590;2023-03-01T03:07:27;11.80;;;9.60;;
8737;SDS011;4405;49.272;8.590;2023-03-01T03:09:53;15.17;;;9.87;;
8737;SDS011;4405;49.272;8.590;2023-03-01T03:12:20;12.97;;;9.80;;
8737;SDS011;4405;49.272;8.590;2023-03-01T03:14:46;12.63;;;9.50;;
8737;SDS011;4405;49.272;8.590;2023-03-01T03:17:13;13.43;;;9.50;;
8737;SDS011;4405;49.272;8.590;2023-03-01T03:19:41;14.43;;;10.40;;
8737;SDS011;4405;49.272;8.590;2023-03-01T03:22:10;13.83;;;9.90;;
8737;SDS011;4405;49.272;8.590;2023-03-01T03:24:36;13.17;;;9.73;;
8737;SDS011;4405;49.272;8.590;2023-03-01T03:27:03;13.87;;;9.80;;
8737;SDS011;4405;49.272;8.590;2023-03-01T03:29:29;14.17;;;10.23;;
8737;SDS011;4405;49.272;8.590;2023-03-01T03:31:56;15.60;;;10.73;;
8737;SDS011;4405;49.272;8.590;2023-03-01T03:34:22;15.80;;;10.67;;
8737;SDS011;4405;49.272;8.590;2023-03-01T03:36:53;14.37;;;10.73;;
8737;SDS011;4405;49.272;8.590;2023-03-01T03:39:24;13.37;;;9.53;;
8737;SDS011;4405;49.272;8.590;2023-03-01T03:41:51;13.93;;;9.60;;
8737;SDS011;4405;49.272;8.590;2023-03-01T03:44:17;13.83;;;10.30;;
8737;SDS011;4405;49.272;8.590;2023-03-01T03:46:43;15.37;;;9.80;;
8737;SDS011;4405;49.272;8.590;2023-03-01T03:49:09;13.83;;;10.63;;
8737;SDS011;4405;49.272;8.590;2023-03-01T03:51:36;13.87;;;10.03;;
8737;SDS011;4405;49.272;8.590;2023-03-01T03:54:03;15.00;;;10.17;;
8737;SDS011;4405;49.272;8.590;2023-03-01T03:56:30;16.07;;;10.93;;
8737;SDS011;4405;49.272;8.590;2023-03-01T03:58:56;18.57;;;10.60;;
8737;SDS011;4405;49.272;8.590;2023-03-01T04:01:23;15.57;;;11.20;;
8737;SDS011;4405;49.272;8.590;2023-03-01T04:03:49;13.77;;;10.40;;
8737;SDS011;4405;49.272;8.590;2023-03-01T04:06:19;16.53;;;10.57;;
8737;SDS011;4405;49.272;8.590;2023-03-01T04:08:45;13.83;;;10.17;;
8737;SDS011;4405;49.272;8.590;2023-03-01T04:11:17;14.93;;;10.43;;
8737;SDS011;4405;49.272;8.590;2023-03-01T04:13:53;13.50;;;10.47;;
8737;SDS011;4405;49.272;8.590;2023-03-01T04:16:19;13.97;;;10.33;;
8737;SDS011;4405;49.272;8.590;2023-03-01T04:18:46;15.87;;;12.00;;
8737;SDS011;4405;49.272;8.590;2023-03-01T04:21:13;15.87;;;11.13;;
8737;SDS011;4405;49.272;8.590;2023-03-01T04:23:39;15.33;;;10.90;;
8737;SDS011;4405;49.272;8.590;2023-03-01T04:26:06;16.43;;;10.40;;
8737;SDS011;4405;49.272;8.590;2023-03-01T04:28:34;15.77;;;10.53;;
8737;SDS011;4405;49.272;8.590;2023-03-01T04:31:02;15.17;;;10.90;;
8737;SDS011;4405;49.272;8.590;2023-03-01T04:33:37;15.70;;;10.87;;
8737;SDS011;4405;49.272;8.590;2023-03-01T04:36:04;14.77;;;10.33;;
8737;SDS011;4405;49.272;8.590;2023-03-01T04:38:33;15.83;;;10.83;;
8737;SDS011;4405;49.272;8.590;2023-03-01T04:41:00;16.57;;;11.20;;
8737;SDS011;4405;49.272;8.590;2023-03-01T04:43:28;17.83;;;11.07;;
8737;SDS011;4405;49.272;8.590;2023-03-01T04:45:56;14.57;;;10.80;;
8737;SDS011;4405;49.272;8.590;2023-03-01T04:48:27;14.53;;;11.30;;
8737;SDS011;4405;49.272;8.590;2023-03-01T04:50:54;14.53;;;10.47;;
8737;SDS011;4405;49.272;8.590;2023-03-01T04:53:20;17.40;;;11.37;;
8737;SDS011;4405;49.272;8.590;2023-03-01T04:55:46;15.10;;;11.17;;
8737;SDS011;4405;49.272;8.590;2023-03-01T04:58:12;17.80;;;11.17;;
8737;SDS011;4405;49.272;8.590;2023-03-01T05:00:39;14.67;;;10.70;;
8737;SDS011;4405;49.272;8.590;2023-03-01T05:03:07;15.73;;;10.97;;
8737;SDS011;4405;49.272;8.590;2023-03-01T05:05:34;13.67;;;10.10;;
8737;SDS011;4405;49.272;8.590;2023-03-01T05:08:02;15.93;;;11.27;;
8737;SDS011;4405;49.272;8.590;2023-03-01T05:10:29;14.70;;;10.67;;
8737;SDS011;4405;49.272;8.590;2023-03-01T05:12:55;15.57;;;10.30;;
8737;SDS011;4405;49.272;8.590;2023-03-01T05:15:22;18.00;;;11.20;;
8737;SDS011;4405;49.272;8.590;2023-03-01T05:17:50;16.30;;;10.67;;
8737;SDS011;4405;49.272;8.590;2023-03-01T05:20:18;13.73;;;10.50;;
8737;SDS011;4405;49.272;8.590;2023-03-01T05:22:47;13.30;;;10.40;;
8737;SDS011;4405;49.272;8.590;2023-03-01T05:25:14;16.67;;;11.23;;
8737;SDS011;4405;49.272;8.590;2023-03-01T05:27:40;16.10;;;11.43;;
8737;SDS011;4405;49.272;8.590;2023-03-01T05:30:07;14.33;;;10.80;;
8737;SDS011;4405;49.272;8.590;2023-03-01T05:32:40;14.17;;;10.63;;
8737;SDS011;4405;49.272;8.590;2023-03-01T05:35:06;14.40;;;10.93;;
8737;SDS011;4405;49.272;8.590;2023-03-01T05:37:34;15.83;;;11.03;;
8737;SDS011;4405;49.272;8.590;2023-03-01T05:40:01;14.37;;;10.93;;
8737;SDS011;4405;49.272;8.590;2023-03-01T05:42:28;15.00;;;10.57;;
8737;SDS011;4405;49.272;8.590;2023-03-01T05:44:55;16.10;;;10.77;;
8737;SDS011;4405;49.272;8.590;2023-03-01T05:47:21;13.23;;;9.80;;
8737;SDS011;4405;49.272;8.590;2023-03-01T05:49:48;17.90;;;11.27;;
8737;SDS011;4405;49.272;8.590;2023-03-01T05:52:15;17.33;;;11.87;;
8737;SDS011;4405;49.272;8.590;2023-03-01T05:54:43;17.23;;;11.63;;
8737;SDS011;4405;49.272;8.590;2023-03-01T05:57:09;17.23;;;11.20;;
8737;SDS011;4405;49.272;8.590;2023-03-01T05:59:35;20.27;;;11.13;;
8737;SDS011;4405;49.272;8.590;2023-03-01T06:02:01;16.17;;;11.97;;
8737;SDS011;4405;49.272;8.590;2023-03-01T06:04:28;17.60;;;12.13;;
8737;SDS011;4405;49.272;8.590;2023-03-01T06:06:54;19.23;;;11.13;;
8737;SDS011;4405;49.272;8.590;2023-03-01T06:09:20;17.33;;;12.23;;
8737;SDS011;4405;49.272;8.590;2023-03-01T06:11:48;15.47;;;11.17;;
8737;SDS011;4405;49.272;8.590;2023-03-01T06:14:15;17.90;;;12.63;;
8737;SDS011;4405;49.272;8.590;2023-03-01T06:16:41;16.00;;;10.87;;
8737;SDS011;4405;49.272;8.590;2023-03-01T06:19:07;17.40;;;11.57;;
8737;SDS011;4405;49.272;8.590;2023-03-01T06:21:34;18.27;;;11.33;;
8737;SDS011;4405;49.272;8.590;2023-03-01T06:24:00;16.93;;;11.47;;
8737;SDS011;4405;49.272;8.590;2023-03-01T06:26:26;15.47;;;10.97;;
8737;SDS011;4405;49.272;8.590;2023-03-01T06:28:54;18.50;;;11.77;;
8737;SDS011;4405;49.272;8.590;2023-03-01T06:31:20;17.97;;;11.70;;
8737;SDS011;4405;49.272;8.590;2023-03-01T06:33:47;16.83;;;11.60;;
8737;SDS011;4405;49.272;8.590;2023-03-01T06:36:13;17.90;;;11.37;;
8737;SDS011;4405;49.272;8.590;2023-03-01T06:38:40;17.47;;;11.50;;
8737;SDS011;4405;49.272;8.590;2023-03-01T06:41:08;15.40;;;11.40;;
8737;SDS011;4405;49.272;8.590;2023-03-01T06:43:34;15.70;;;11.53;;
8737;SDS011;4405;49.272;8.590;2023-03-01T06:46:04;18.53;;;11.70;;
8737;SDS011;4405;49.272;8.590;2023-03-01T06:48:31;18.50;;;11.93;;
8737;SDS011;4405;49.272;8.590;2023-03-01T06:50:58;21.27;;;11.67;;
8737;SDS011;4405;49.272;8.590;2023-03-01T06:53:24;15.47;;;10.87;;
8737;SDS011;4405;49.272;8.590;2023-03-01T06:55:53;18.53;;;12.00;;
8737;SDS011;4405;49.272;8.590;2023-03-01T06:58:19;20.87;;;12.10;;
8737;SDS011;4405;49.272;8.590;2023-03-01T07:00:46;17.80;;;12.00;;
8737;SDS011;4405;49.272;8.590;2023-03-01T07:03:14;16.87;;;11.87;;
8737;SDS011;4405;49.272;8.590;2023-03-01T07:05:40;18.40;;;12.03;;
8737;SDS011;4405;49.272;8.590;2023-03-01T07:08:07;16.73;;;11.27;;
8737;SDS011;4405;49.272;8.590;2023-03-01T07:10:33;15.73;;;10.93;;
8737;SDS011;4405;49.272;8.590;2023-03-01T07:12:59;15.43;;;11.40;;
8737;SDS011;4405;49.272;8.590;2023-03-01T07:15:26;18.77;;;12.13;;
8737;SDS011;4405;49.272;8.590;2023-03-01T07:17:52;13.47;;;11.27;;
8737;SDS011;4405;49.272;8.590;2023-03-01T07:20:20;16.73;;;11.73;;
8737;SDS011;4405;49.272;8.590;2023-03-01T07:22:49;15.77;;;11.57;;
8737;SDS011;4405;49.272;8.590;2023-03-01T07:25:15;16.10;;;12.03;;
8737;SDS011;4405;49.272;8.590;2023-03-01T07:27:42;18.13;;;12.97;;
8737;SDS011;4405;49.272;8.590;2023-03-01T07:30:09;20.60;;;12.63;;
8737;SDS011;4405;49.272;8.590;2023-03-01T07:32:39;18.23;;;12.40;;
8737;SDS011;4405;49.272;8.590;2023-03-01T07:35:06;20.53;;;13.50;;
8737;SDS011;4405;49.272;8.590;2023-03-01T07:37:34;19.73;;;13.97;;
8737;SDS011;4405;49.272;8.590;2023-03-01T07:40:00;19.57;;;13.37;;
8737;SDS011;4405;49.272;8.590;2023-03-01T07:42:26;18.47;;;13.10;;
8737;SDS011;4405;49.272;8.590;2023-03-01T07:44:53;20.43;;;12.97;;
8737;SDS011;4405;49.272;8.590;2023-03-01T07:47:19;17.87;;;12.47;;
8737;SDS011;4405;49.272;8.590;2023-03-01T07:49:45;16.93;;;13.20;;
8737;SDS011;4405;49.272;8.590;2023-03-01T07:52:12;17.50;;;12.53;;
8737;SDS011;4405;49.272;8.590;2023-03-01T07:54:41;17.60;;;12.63;;
8737;SDS011;4405;49.272;8.590;2023-03-01T07:57:08;17.80;;;12.70;;
8737;SDS011;4405;49.272;8.590;2023-03-01T07:59:34;16.87;;;12.40;;
8737;SDS011;4405;49.272;8.590;2023-03-01T08:02:00;17.37;;;13.17;;
8737;SDS011;4405;49.272;8.590;2023-03-01T08:04:27;15.37;;;12.07;;
8737;SDS011;4405;49.272;8.590;2023-03-01T08:06:53;19.23;;;13.40;;
8737;SDS011;4405;49.272;8.590;2023-03-01T08:09:20;16.10;;;12.80;;
8737;SDS011;4405;49.272;8.590;2023-03-01T08:11:48;16.17;;;12.20;;
8737;SDS011;4405;49.272;8.590;2023-03-01T08:14:14;17.70;;;13.43;;
8737;SDS011;4405;49.272;8.590;2023-03-01T08:16:41;16.33;;;12.87;;
8737;SDS011;4405;49.272;8.590;2023-03-01T08:19:07;18.33;;;13.13;;
8737;SDS011;4405;49.272;8.590;2023-03-01T08:21:34;17.17;;;12.77;;
8737;SDS011;4405;49.272;8.590;2023-03-01T08:24:00;19.23;;;13.57;;
8737;SDS011;4405;49.272;8.590;2023-03-01T08:26:27;24.07;;;12.67;;
8737;SDS011;4405;49.272;8.590;2023-03-01T08:28:54;17.27;;;13.17;;
8737;SDS011;4405;49.272;8.590;2023-03-01T08:31:21;15.53;;;12.83;;
8737;SDS011;4405;49.272;8.590;2023-03-01T08:33:49;17.27;;;13.67;;
8737;SDS011;4405;49.272;8.590;2023-03-01T08:36:20;17.70;;;13.57;;
8737;SDS011;4405;49.272;8.590;2023-03-01T08:38:46;15.40;;;13.63;;
8737;SDS011;4405;49.272;8.590;2023-03-01T08:41:13;15.43;;;13.37;;
8737;SDS011;4405;49.272;8.590;2023-03-01T08:43:40;14.87;;;13.20;;
8737;SDS011;4405;49.272;8.590;2023-03-01T08:46:08;15.33;;;13.10;;
8737;SDS011;4405;49.272;8.590;2023-03-01T08:48:34;17.60;;;14.10;;
8737;SDS011;4405;49.272;8.590;2023-03-01T08:51:06;18.87;;;14.13;;
8737;SDS011;4405;49.272;8.590;2023-03-01T08:53:33;17.47;;;13.97;;
8737;SDS011;4405;49.272;8.590;2023-03-01T08:56:00;16.97;;;14.27;;
8737;SDS011;4405;49.272;8.590;2023-03-01T08:58:27;16.63;;;13.53;;
8737;SDS011;4405;49.272;8.590;2023-03-01T09:00:53;16.63;;;14.03;;
8737;SDS011;4405;49.272;8.590;2023-03-01T09:03:22;15.73;;;13.77;;
8737;SDS011;4405;49.272;8.590;2023-03-01T09:05:49;16.20;;;13.33;;
8737;SDS011;4405;49.272;8.590;2023-03-01T09:08:16;16.57;;;14.33;;
8737;SDS011;4405;49.272;8.590;2023-03-01T09:10:42;17.47;;;14.73;;
8737;SDS011;4405;49.272;8.590;2023-03-01T09:13:08;18.43;;;14.83;;
8737;SDS011;4405;49.272;8.590;2023-03-01T09:15:36;17.50;;;15.20;;
8737;SDS011;4405;49.272;8.590;2023-03-01T09:18:02;16.43;;;14.70;;
8737;SDS011;4405;49.272;8.590;2023-03-01T09:20:31;17.90;;;14.27;;
8737;SDS011;4405;49.272;8.590;2023-03-01T09:22:58;18.27;;;14.70;;
8737;SDS011;4405;49.272;8.590;2023-03-01T09:25:24;15.57;;;13.90;;
8737;SDS011;4405;49.272;8.590;2023-03-01T09:27:51;17.27;;;15.30;;
8737;SDS011;4405;49.272;8.590;2023-03-01T09:30:17;16.00;;;14.27;;
8737;SDS011;4405;49.272;8.590;2023-03-01T09:32:44;19.40;;;15.00;;
8737;SDS011;4405;49.272;8.590;2023-03-01T09:35:10;16.83;;;14.77;;
8737;SDS011;4405;49.272;8.590;2023-03-01T09:37:38;16.60;;;14.70;;
8737;SDS011;4405;49.272;8.590;2023-03-01T09:40:09;16.87;;;14.27;;
8737;SDS011;4405;49.272;8.590;2023-03-01T09:42:45;16.37;;;14.67;;
8737;SDS011;4405;49.272;8.590;2023-03-01T09:45:14;15.50;;;13.90;;
8737;SDS011;4405;49.272;8.590;2023-03-01T09:47:45;16.90;;;14.87;;
8737;SDS011;4405;49.272;8.590;2023-03-01T09:50:12;16.83;;;14.93;;
8737;SDS011;4405;49.272;8.590;2023-03-01T09:52:41;17.77;;;14.87;;
8737;SDS011;4405;49.272;8.590;2023-03-01T09:55:10;16.23;;;14.50;;
8737;SDS011;4405;49.272;8.590;2023-03-01T09:57:38;16.53;;;14.27;;
8737;SDS011;4405;49.272;8.590;2023-03-01T10:00:15;19.23;;;14.37;;
8737;SDS011;4405;49.272;8.590;2023-03-01T10:02:46;15.83;;;14.23;;
8737;SDS011;4405;49.272;8.590;2023-03-01T10:05:15;17.77;;;15.87;;
8737;SDS011;4405;49.272;8.590;2023-03-01T10:07:48;18.77;;;15.07;;
8737;SDS011;4405;49.272;8.590;2023-03-01T10:10:21;16.93;;;15.23;;
8737;SDS011;4405;49.272;8.590;2023-03-01T10:12:49;17.13;;;14.80;;
8737;SDS011;4405;49.272;8.590;2023-03-01T10:15:17;21.20;;;14.80;;
8737;SDS011;4405;49.272;8.590;2023-03-01T10:17:46;18.70;;;15.93;;
8737;SDS011;4405;49.272;8.590;2023-03-01T10:20:17;15.90;;;14.27;;
8737;SDS011;4405;49.272;8.590;2023-03-01T10:22:44;17.33;;;14.13;;
8737;SDS011;4405;49.272;8.590;2023-03-01T10:25:17;19.60;;;15.17;;
8737;SDS011;4405;49.272;8.590;2023-03-01T10:27:48;18.50;;;15.47;;
8737;SDS011;4405;49.272;8.590;2023-03-01T10:30:17;17.53;;;15.73;;
8737;SDS011;4405;49.272;8.590;2023-03-01T10:32:46;17.10;;;15.40;;
8737;SDS011;4405;49.272;8.590;2023-03-01T10:35:20;16.47;;;14.67;;
8737;SDS011;4405;49.272;8.590;2023-03-01T10:37:56;18.83;;;14.73;;
8737;SDS011;4405;49.272;8.590;2023-03-01T10:40:24;18.87;;;15.67;;
8737;SDS011;4405;49.272;8.590;2023-03-01T10:42:51;16.37;;;14.67;;
8737;SDS011;4405;49.272;8.590;2023-03-01T10:45:27;16.30;;;14.37;;
8737;SDS011;4405;49.272;8.590;2023-03-01T10:48:02;18.63;;;14.47;;
8737;SDS011;4405;49.272;8.590;2023-03-01T10:50:29;15.57;;;13.97;;
8737;SDS011;4405;49.272;8.590;2023-03-01T10:52:57;24.87;;;21.10;;
8737;SDS011;4405;49.272;8.590;2023-03-01T10:55:26;16.33;;;14.73;;
8737;SDS011;4405;49.272;8.590;2023-03-01T10:58:06;17.23;;;14.87;;
8737;SDS011;4405;49.272;8.590;2023-03-01T11:00:33;18.07;;;14.73;;
8737;SDS011;4405;49.272;8.590;2023-03-01T11:03:04;17.03;;;15.23;;
8737;SDS011;4405;49.272;8.590;2023-03-01T11:05:36;16.63;;;14.87;;
8737;SDS011;4405;49.272;8.590;2023-03-01T11:08:02;16.47;;;14.83;;
8737;SDS011;4405;49.272;8.590;2023-03-01T11:10:31;17.17;;;15.47;;
8737;SDS011;4405;49.272;8.590;2023-03-01T11:13:07;16.37;;;14.67;;
8737;SDS011;4405;49.272;8.590;2023-03-01T11:15:34;17.03;;;15.00;;
8737;SDS011;4405;49.272;8.590;2023-03-01T11:18:01;14.77;;;13.47;;
8737;SDS011;4405;49.272;8.590;2023-03-01T11:20:29;15.97;;;14.47;;
8737;SDS011;4405;49.272;8.590;2023-03-01T11:22:57;17.40;;;15.50;;
8737;SDS011;4405;49.272;8.590;2023-03-01T11:25:25;15.73;;;14.23;;
8737;SDS011;4405;49.272;8.590;2023-03-01T11:27:54;16.40;;;14.50;;
8737;SDS011;4405;49.272;8.590;2023-03-01T11:30:23;17.07;;;14.60;;
8737;SDS011;4405;49.272;8.590;2023-03-01T11:32:53;16.83;;;15.03;;
8737;SDS011;4405;49.272;8.590;2023-03-01T11:35:21;16.33;;;14.73;;
8737;SDS011;4405;49.272;8.590;2023-03-01T11:37:53;19.20;;;14.23;;
8737;SDS011;4405;49.272;8.590;2023-03-01T11:40:23;19.23;;;14.77;;
8737;SDS011;4405;49.272;8.590;2023-03-01T11:42:52;16.40;;;14.80;;
8737;SDS011;4405;49.272;8.590;2023-03-01T11:45:23;15.93;;;14.17;;
8737;SDS011;4405;49.272;8.590;2023-03-01T11:48:06;15.17;;;13.67;;
8737;SDS011;4405;49.272;8.590;2023-03-01T11:50:35;15.70;;;14.20;;
8737;SDS011;4405;49.272;8.590;2023-03-01T11:53:11;15.37;;;13.87;;
8737;SDS011;4405;49.272;8.590;2023-03-01T11:55:46;15.07;;;13.47;;
8737;SDS011;4405;49.272;8.590;2023-03-01T11:58:23;15.10;;;13.70;;
8737;SDS011;4405;49.272;8.590;2023-03-01T12:01:00;15.03;;;13.57;;
8737;SDS011;4405;49.272;8.590;2023-03-01T12:03:31;14.97;;;13.47;;
8737;SDS011;4405;49.272;8.590;2023-03-01T12:06:02;14.97;;;13.47;;
8737;SDS011;4405;49.272;8.590;2023-03-01T12:08:32;16.93;;;14.00;;
8737;SDS011;4405;49.272;8.590;2023-03-01T12:11:02;15.50;;;13.90;;
8737;SDS011;4405;49.272;8.590;2023-03-01T12:13:38;15.07;;;13.67;;
8737;SDS011;4405;49.272;8.590;2023-03-01T12:16:17;15.27;;;13.63;;
8737;SDS011;4405;49.272;8.590;2023-03-01T12:21:30;14.37;;;12.93;;
8737;SDS011;4405;49.272;8.590;2023-03-01T12:26:43;13.97;;;12.57;;
8737;SDS011;4405;49.272;8.590;2023-03-01T12:29:18;14.63;;;13.17;;
8737;SDS011;4405;49.272;8.590;2023-03-01T12:34:38;14.63;;;13.20;;
8737;SDS011;4405;49.272;8.590;2023-03-01T12:37:11;15.03;;;13.43;;
8737;SDS011;4405;49.272;8.590;2023-03-01T12:39:43;14.67;;;13.13;;
8737;SDS011;4405;49.272;8.590;2023-03-01T12:42:13;14.97;;;13.50;;
8737;SDS011;4405;49.272;8.590;2023-03-01T12:44:47;15.07;;;13.53;;
8737;SDS011;4405;49.272;8.590;2023-03-01T12:47:20;14.47;;;12.97;;
8737;SDS011;4405;49.272;8.590;2023-03-01T12:49:51;14.27;;;12.83;;
8737;SDS011;4405;49.272;8.590;2023-03-01T12:52:21;15.23;;;13.70;;
8737;SDS011;4405;49.272;8.590;2023-03-01T12:54:49;13.63;;;12.33;;
8737;SDS011;4405;49.272;8.590;2023-03-01T13:06:28;14.73;;;13.17;;
8737;SDS011;4405;49.272;8.590;2023-03-01T13:08:58;13.50;;;12.20;;
8737;SDS011;4405;49.272;8.590;2023-03-01T13:11:26;14.57;;;13.07;;
8737;SDS011;4405;49.272;8.590;2023-03-01T13:13:55;16.40;;;13.20;;
8737;SDS011;4405;49.272;8.590;2023-03-01T13:16:41;14.07;;;12.57;;
8737;SDS011;4405;49.272;8.590;2023-03-01T13:19:11;14.27;;;12.97;;
8737;SDS011;4405;49.272;8.590;2023-03-01T13:21:40;13.83;;;12.47;;
8737;SDS011;4405;49.272;8.590;2023-03-01T13:27:09;13.20;;;12.00;;
8737;SDS011;4405;49.272;8.590;2023-03-01T13:29:43;11.93;;;10.73;;
8737;SDS011;4405;49.272;8.590;2023-03-01T13:32:17;12.13;;;11.00;;
8737;SDS011;4405;49.272;8.590;2023-03-01T13:34:55;12.13;;;11.03;;
8737;SDS011;4405;49.272;8.590;2023-03-01T13:37:35;13.00;;;11.80;;
8737;SDS011;4405;49.272;8.590;2023-03-01T13:42:47;13.40;;;12.17;;
8737;SDS011;4405;49.272;8.590;2023-03-01T13:45:21;13.40;;;12.30;;
8737;SDS011;4405;49.272;8.590;2023-03-01T13:47:49;14.10;;;12.80;;
8737;SDS011;4405;49.272;8.590;2023-03-01T13:50:18;13.07;;;11.87;;
8737;SDS011;4405;49.272;8.590;2023-03-01T13:52:46;12.67;;;11.57;;
8737;SDS011;4405;49.272;8.590;2023-03-01T13:55:16;12.90;;;11.60;;
8737;SDS011;4405;49.272;8.590;2023-03-01T13:57:44;12.50;;;11.40;;
8737;SDS011;4405;49.272;8.590;2023-03-01T14:00:24;13.53;;;12.43;;
8737;SDS011;4405;49.272;8.590;2023-03-01T14:02:59;12.37;;;11.17;;
8737;SDS011;4405;49.272;8.590;2023-03-01T14:05:25;13.33;;;12.17;;
8737;SDS011;4405;49.272;8.590;2023-03-01T14:07:53;13.83;;;12.63;;
8737;SDS011;4405;49.272;8.590;2023-03-01T14:10:19;14.03;;;12.70;;
8737;SDS011;4405;49.272;8.590;2023-03-01T14:12:46;13.93;;;12.63;;
8737;SDS011;4405;49.272;8.590;2023-03-01T14:15:16;14.00;;;12.67;;
8737;SDS011;4405;49.272;8.590;2023-03-01T14:17:46;14.63;;;13.33;;
8737;SDS011;4405;49.272;8.590;2023-03-01T14:20:17;14.37;;;13.00;;
8737;SDS011;4405;49.272;8.590;2023-03-01T14:22:43;13.27;;;11.97;;
8737;SDS011;4405;49.272;8.590;2023-03-01T14:25:18;13.03;;;11.83;;
8737;SDS011;4405;49.272;8.590;2023-03-01T14:27:45;13.20;;;11.90;;
8737;SDS011;4405;49.272;8.590;2023-03-01T14:30:18;13.37;;;12.07;;
8737;SDS011;4405;49.272;8.590;2023-03-01T14:32:51;13.03;;;11.83;;
8737;SDS011;4405;49.272;8.590;2023-03-01T14:35:19;13.73;;;12.43;;
8737;SDS011;4405;49.272;8.590;2023-03-01T14:37:45;13.23;;;12.03;;
8737;SDS011;4405;49.272;8.590;2023-03-01T14:40:21;12.17;;;11.10;;
8737;SDS011;4405;49.272;8.590;2023-03-01T14:42:49;11.50;;;10.50;;
8737;SDS011;4405;49.272;8.590;2023-03-01T14:45:15;12.73;;;11.57;;
8737;SDS011;4405;49.272;8.590;2023-03-01T14:47:43;12.47;;;11.27;;
8737;SDS011;4405;49.272;8.590;2023-03-01T14:50:15;12.57;;;11.37;;
8737;SDS011;4405;49.272;8.590;2023-03-01T14:52:45;11.10;;;10.10;;
8737;SDS011;4405;49.272;8.590;2023-03-01T14:55:13;11.50;;;10.40;;
8737;SDS011;4405;49.272;8.590;2023-03-01T14:57:44;13.57;;;12.20;;
8737;SDS011;4405;49.272;8.590;2023-03-01T15:00:11;13.00;;;11.80;;
8737;SDS011;4405;49.272;8.590;2023-03-01T15:02:39;12.73;;;11.63;;
8737;SDS011;4405;49.272;8.590;2023-03-01T15:05:08;12.80;;;11.70;;
8737;SDS011;4405;49.272;8.590;2023-03-01T15:07:35;12.77;;;11.57;;
8737;SDS011;4405;49.272;8.590;2023-03-01T15:10:03;12.57;;;11.00;;
8737;SDS011;4405;49.272;8.590;2023-03-01T15:15:22;12.90;;;11.60;;
8737;SDS011;4405;49.272;8.590;2023-03-01T15:17:53;12.93;;;11.63;;
8737;SDS011;4405;49.272;8.590;2023-03-01T15:20:22;12.90;;;11.70;;
8737;SDS011;4405;49.272;8.590;2023-03-01T15:22:51;14.50;;;12.03;;